createdAt,value
2022-07-30T00:02:10.780Z,101407.80
2022-07-30T00:04:38.539Z,101403.20
2022-07-30T00:07:06.327Z,101408.20
2022-07-30T00:09:36.270Z,101411.00
2022-07-30T00:12:07.023Z,101412.00
2022-07-30T00:14:36.088Z,101409.40
2022-07-30T00:17:05.453Z,101410.80
2022-07-30T00:19:33.810Z,101405.80
2022-07-30T00:22:01.772Z,101402.60
2022-07-30T00:24:29.830Z,101401.00
2022-07-30T00:26:57.751Z,101402.40
2022-07-30T00:29:26.719Z,101399.40
2022-07-30T00:31:54.514Z,101397.60
2022-07-30T00:34:22.467Z,101397.60
2022-07-30T00:36:50.352Z,101401.80
2022-07-30T00:39:18.109Z,101401.40
2022-07-30T00:42:01.971Z,101393.40
2022-07-30T00:44:30.878Z,101395.20
2022-07-30T00:46:59.159Z,101391.80
2022-07-30T00:49:27.863Z,101394.80
2022-07-30T00:51:56.574Z,101391.20
2022-07-30T00:54:24.563Z,101392.40
2022-07-30T00:56:52.701Z,101386.80
2022-07-30T00:59:20.441Z,101384.40
2022-07-30T01:01:48.238Z,101379.40
2022-07-30T01:04:16.136Z,101380.40
2022-07-30T01:06:43.889Z,101378.20
2022-07-30T01:09:12.262Z,101373.20
2022-07-30T01:11:43.122Z,101377.40
2022-07-30T01:14:11.144Z,101371.80
2022-07-30T01:16:42.860Z,101364.40
2022-07-30T01:19:41.724Z,101364.80
2022-07-30T01:22:31.228Z,101359.40
2022-07-30T01:25:24.771Z,101354.80
2022-07-30T01:27:59.893Z,101354.00
2022-07-30T01:30:34.853Z,101353.80
2022-07-30T01:33:05.735Z,101351.20
2022-07-30T01:35:35.899Z,101341.20
2022-07-30T01:38:06.734Z,101339.20
2022-07-30T01:40:38.735Z,101333.20
2022-07-30T01:43:09.287Z,101332.20
2022-07-30T01:45:43.970Z,101324.00
2022-07-30T01:48:15.777Z,101322.80
2022-07-30T01:50:49.218Z,101321.20
2022-07-30T01:53:26.295Z,101319.60
2022-07-30T01:55:57.761Z,101311.20
2022-07-30T01:58:32.674Z,101311.20
2022-07-30T02:01:00.625Z,101310.80
2022-07-30T02:03:29.811Z,101311.20
2022-07-30T02:06:02.196Z,101307.40
2022-07-30T02:08:51.342Z,101309.40
2022-07-30T02:11:39.818Z,101310.40
2022-07-30T02:14:39.095Z,101307.60
2022-07-30T02:17:19.049Z,101303.00
2022-07-30T02:19:53.210Z,101296.40
2022-07-30T02:22:25.776Z,101296.60
2022-07-30T02:24:56.292Z,101289.00
2022-07-30T02:27:32.689Z,101280.40
2022-07-30T02:30:03.740Z,101278.40
2022-07-30T02:32:39.764Z,101269.60
2022-07-30T02:35:23.400Z,101262.60
2022-07-30T02:37:54.593Z,101265.60
2022-07-30T02:40:23.949Z,101264.00
2022-07-30T02:42:53.440Z,101272.40
2022-07-30T02:45:24.805Z,101275.20
2022-07-30T02:48:01.377Z,101277.40
2022-07-30T02:50:32.039Z,101275.20
2022-07-30T02:53:02.905Z,101273.60
2022-07-30T02:55:35.614Z,101268.80
2022-07-30T02:58:07.029Z,101272.00
2022-07-30T03:00:36.151Z,101271.60
2022-07-30T03:03:07.725Z,101267.60
2022-07-30T03:05:36.897Z,101274.00
2022-07-30T03:08:06.133Z,101269.80
2022-07-30T03:10:35.207Z,101269.00
2022-07-30T03:13:07.400Z,101267.00
2022-07-30T03:15:39.232Z,101267.40
2022-07-30T03:18:14.605Z,101267.20
2022-07-30T03:20:47.304Z,101267.20
2022-07-30T03:23:20.305Z,101268.60
2022-07-30T03:25:55.606Z,101269.00
2022-07-30T03:28:26.284Z,101275.40
2022-07-30T03:30:54.778Z,101271.40
2022-07-30T03:33:25.340Z,101281.80
2022-07-30T03:36:09.190Z,101282.00
2022-07-30T03:38:39.101Z,101285.40
2022-07-30T03:41:08.924Z,101281.00
2022-07-30T03:43:40.267Z,101290.00
2022-07-30T03:46:11.473Z,101293.60
2022-07-30T03:48:41.096Z,101294.60
2022-07-30T03:51:10.327Z,101292.00
2022-07-30T03:53:41.367Z,101290.60
2022-07-30T03:56:11.323Z,101283.40
2022-07-30T03:58:39.449Z,101283.20
2022-07-30T04:01:07.243Z,101281.80
2022-07-30T04:03:35.243Z,101276.80
2022-07-30T04:06:03.231Z,101270.00
2022-07-30T04:08:31.195Z,101268.40
2022-07-30T04:10:58.970Z,101265.40
2022-07-30T04:13:26.960Z,101270.60
2022-07-30T04:16:39.285Z,101262.80
2022-07-30T04:18:59.246Z,101262.60
2022-07-30T04:21:30.188Z,101262.80
2022-07-30T04:24:05.028Z,101261.80
2022-07-30T04:26:36.825Z,101252.00
2022-07-30T04:29:14.282Z,101249.00
2022-07-30T04:31:46.924Z,101247.40
2022-07-30T04:34:15.558Z,101243.60
2022-07-30T04:36:44.127Z,101235.00
2022-07-30T04:39:13.076Z,101232.40
2022-07-30T04:41:49.337Z,101237.80
2022-07-30T04:44:19.810Z,101235.80
2022-07-30T04:46:48.294Z,101233.80
2022-07-30T04:49:18.574Z,101233.60
2022-07-30T04:51:49.047Z,101234.00
2022-07-30T04:54:19.362Z,101237.00
2022-07-30T04:56:52.419Z,101235.40
2022-07-30T04:59:25.417Z,101232.80
2022-07-30T05:01:57.471Z,101236.80
2022-07-30T05:04:26.816Z,101236.60
2022-07-30T05:06:56.947Z,101237.60
2022-07-30T05:09:25.309Z,101235.20
2022-07-30T05:11:55.236Z,101239.40
2022-07-30T05:14:24.496Z,101235.40
2022-07-30T05:16:54.948Z,101228.40
2022-07-30T05:19:23.374Z,101224.60
2022-07-30T05:21:52.466Z,101226.20
2022-07-30T05:24:20.783Z,101225.20
2022-07-30T05:26:48.884Z,101225.60
2022-07-30T05:29:19.420Z,101221.80
2022-07-30T05:31:48.928Z,101226.00
2022-07-30T05:34:16.806Z,101228.00
2022-07-30T05:36:45.517Z,101222.60
2022-07-30T05:39:13.946Z,101220.00
2022-07-30T05:41:41.712Z,101220.40
2022-07-30T05:44:09.726Z,101231.40
2022-07-30T05:46:37.727Z,101234.20
2022-07-30T05:49:06.703Z,101227.20
2022-07-30T05:51:34.614Z,101226.60
2022-07-30T05:54:02.387Z,101224.40
2022-07-30T05:56:30.223Z,101224.80
2022-07-30T05:58:58.146Z,101227.20
2022-07-30T06:01:26.114Z,101227.00
2022-07-30T06:03:54.089Z,101222.00
2022-07-30T06:06:23.321Z,101223.80
2022-07-30T06:08:51.533Z,101225.00
2022-07-30T06:11:19.741Z,101231.40
2022-07-30T06:13:47.597Z,101229.40
2022-07-30T06:16:15.546Z,101229.00
2022-07-30T06:18:43.328Z,101225.00
2022-07-30T06:21:11.271Z,101225.20
2022-07-30T06:23:39.187Z,101222.60
2022-07-30T06:26:06.955Z,101219.60
2022-07-30T06:28:38.029Z,101219.00
2022-07-30T06:31:07.503Z,101221.00
2022-07-30T06:33:35.426Z,101220.80
2022-07-30T06:36:06.136Z,101218.60
2022-07-30T06:38:34.118Z,101219.00
2022-07-30T06:41:02.965Z,101222.60
2022-07-30T06:43:32.421Z,101220.60
2022-07-30T06:46:01.016Z,101215.20
2022-07-30T06:48:31.945Z,101217.20
2022-07-30T06:50:59.934Z,101218.40
2022-07-30T06:53:27.716Z,101222.00
2022-07-30T06:56:00.235Z,101222.00
2022-07-30T06:58:29.343Z,101223.00
2022-07-30T07:00:57.333Z,101231.80
2022-07-30T07:03:40.198Z,101228.60
2022-07-30T07:06:09.064Z,101227.80
2022-07-30T07:08:38.570Z,101230.60
2022-07-30T07:11:06.640Z,101229.60
2022-07-30T07:13:34.748Z,101230.20
2022-07-30T07:16:02.846Z,101225.20
2022-07-30T07:18:30.881Z,101229.00
2022-07-30T07:20:58.795Z,101229.60
2022-07-30T07:23:41.947Z,101229.40
2022-07-30T07:26:12.151Z,101224.60
2022-07-30T07:28:40.869Z,101222.80
2022-07-30T07:31:11.396Z,101218.40
2022-07-30T07:33:59.720Z,101212.80
2022-07-30T07:36:27.560Z,101214.20
2022-07-30T07:38:55.793Z,101215.60
2022-07-30T07:41:23.756Z,101212.20
2022-07-30T07:43:51.437Z,101212.80
2022-07-30T07:46:33.095Z,101206.80
2022-07-30T07:49:04.672Z,101205.40
2022-07-30T07:51:46.898Z,101197.40
2022-07-30T07:54:22.651Z,101192.80
2022-07-30T07:56:57.593Z,101196.00
2022-07-30T07:59:36.234Z,101193.60
2022-07-30T08:02:09.277Z,101190.60
2022-07-30T08:04:36.994Z,101190.20
2022-07-30T08:07:05.131Z,101190.60
2022-07-30T08:09:43.985Z,101187.40
2022-07-30T08:12:13.247Z,101190.60
2022-07-30T08:14:41.209Z,101186.00
2022-07-30T08:17:09.616Z,101187.60
2022-07-30T08:19:37.591Z,101186.20
2022-07-30T08:22:06.247Z,101184.20
2022-07-30T08:24:37.488Z,101187.20
2022-07-30T08:27:05.803Z,101185.80
2022-07-30T08:29:35.189Z,101187.60
2022-07-30T08:32:04.215Z,101177.00
2022-07-30T08:34:32.743Z,101174.80
2022-07-30T08:37:00.548Z,101181.60
2022-07-30T08:39:29.136Z,101173.20
2022-07-30T08:41:59.272Z,101175.00
2022-07-30T08:44:29.494Z,101173.20
2022-07-30T08:46:59.914Z,101179.20
2022-07-30T08:49:28.263Z,101176.60
2022-07-30T08:51:56.824Z,101179.40
2022-07-30T08:54:24.881Z,101176.20
2022-07-30T08:56:52.976Z,101173.00
2022-07-30T08:59:24.058Z,101166.60
2022-07-30T09:01:52.279Z,101165.60
2022-07-30T09:04:20.117Z,101169.20
2022-07-30T09:06:47.976Z,101166.40
2022-07-30T09:09:16.797Z,101175.80
2022-07-30T09:11:44.662Z,101169.20
2022-07-30T09:14:15.364Z,101167.60
2022-07-30T09:16:45.355Z,101166.60
2022-07-30T09:19:20.586Z,101166.80
2022-07-30T09:22:02.114Z,101176.20
2022-07-30T09:24:44.044Z,101168.80
2022-07-30T09:27:11.875Z,101168.20
2022-07-30T09:29:39.790Z,101167.20
2022-07-30T09:32:09.774Z,101164.60
2022-07-30T09:34:40.195Z,101169.00
2022-07-30T09:37:12.660Z,101170.80
2022-07-30T09:39:43.165Z,101167.60
2022-07-30T09:42:29.248Z,101167.80
2022-07-30T09:45:15.421Z,101161.80
2022-07-30T09:47:48.569Z,101159.60
2022-07-30T09:50:30.144Z,101157.00
2022-07-30T09:53:12.088Z,101164.00
2022-07-30T09:55:43.749Z,101156.20
2022-07-30T09:58:26.556Z,101155.40
2022-07-30T10:00:59.746Z,101157.40
2022-07-30T10:03:33.178Z,101152.80
2022-07-30T10:06:03.113Z,101156.60
2022-07-30T10:08:46.205Z,101153.40
2022-07-30T10:11:23.602Z,101153.20
2022-07-30T10:13:59.925Z,101161.20
2022-07-30T10:16:29.861Z,101156.00
2022-07-30T10:19:01.541Z,101153.40
2022-07-30T10:21:32.609Z,101157.60
2022-07-30T10:24:06.819Z,101156.20
2022-07-30T10:26:35.347Z,101152.20
2022-07-30T10:29:04.956Z,101160.40
2022-07-30T10:31:46.684Z,101155.00
2022-07-30T10:34:23.606Z,101160.40
2022-07-30T10:37:04.427Z,101160.80
2022-07-30T10:39:43.858Z,101162.00
2022-07-30T10:43:19.745Z,101168.60
2022-07-30T10:46:19.915Z,101165.40
2022-07-30T10:48:51.013Z,101171.80
2022-07-30T10:51:25.556Z,101166.00
2022-07-30T10:54:02.766Z,101168.80
2022-07-30T10:56:30.646Z,101166.40
2022-07-30T10:59:09.878Z,101166.40
2022-07-30T11:01:48.772Z,101156.80
2022-07-30T11:04:25.588Z,101156.80
2022-07-30T11:07:25.369Z,101162.60
2022-07-30T11:10:04.994Z,101158.00
2022-07-30T11:12:44.060Z,101166.40
2022-07-30T11:15:19.077Z,101168.20
2022-07-30T11:18:12.254Z,101158.00
2022-07-30T11:20:43.203Z,101174.40
2022-07-30T11:23:37.678Z,101163.60
2022-07-30T11:26:07.925Z,101166.00
2022-07-30T11:28:49.255Z,101164.20
2022-07-30T11:31:55.061Z,101163.80
2022-07-30T11:34:24.138Z,101163.40
2022-07-30T11:37:22.155Z,101162.40
2022-07-30T11:40:00.235Z,101159.40
2022-07-30T11:42:33.306Z,101159.20
2022-07-30T11:45:16.205Z,101157.40
2022-07-30T11:47:54.324Z,101160.00
2022-07-30T11:50:32.685Z,101155.20
2022-07-30T11:53:06.233Z,101162.00
2022-07-30T11:55:44.828Z,101153.20
2022-07-30T11:58:34.771Z,101154.00
2022-07-30T12:01:13.488Z,101154.20
2022-07-30T12:03:44.668Z,101152.80
2022-07-30T12:06:19.989Z,101149.20
2022-07-30T12:08:55.053Z,101147.40
2022-07-30T12:11:33.663Z,101149.40
2022-07-30T12:14:03.525Z,101153.40
2022-07-30T12:16:32.985Z,101150.20
2022-07-30T12:19:06.620Z,101152.80
2022-07-30T12:21:37.468Z,101147.60
2022-07-30T12:24:12.709Z,101151.60
2022-07-30T12:26:40.804Z,101138.80
2022-07-30T12:29:13.570Z,101149.60
2022-07-30T12:31:42.745Z,101149.80
2022-07-30T12:34:25.880Z,101150.40
2022-07-30T12:36:55.059Z,101142.00
2022-07-30T12:39:27.301Z,101142.20
2022-07-30T12:41:58.652Z,101150.60
2022-07-30T12:44:45.137Z,101147.20
2022-07-30T12:47:26.319Z,101149.20
2022-07-30T12:49:57.528Z,101135.60
2022-07-30T12:52:31.044Z,101140.20
2022-07-30T12:55:13.056Z,101148.00
2022-07-30T12:58:07.154Z,101141.40
2022-07-30T13:00:53.085Z,101143.00
2022-07-30T13:03:28.252Z,101140.00
2022-07-30T13:05:57.787Z,101133.00
2022-07-30T13:08:52.749Z,101140.80
2022-07-30T13:11:42.654Z,101128.80
2022-07-30T13:14:24.685Z,101137.20
2022-07-30T13:16:57.029Z,101128.40
2022-07-30T13:19:26.514Z,101138.00
2022-07-30T13:21:54.390Z,101138.00
2022-07-30T13:24:22.193Z,101128.80
2022-07-30T13:26:50.797Z,101125.20
2022-07-30T13:29:18.845Z,101118.80
2022-07-30T13:31:46.862Z,101129.40
2022-07-30T13:34:14.935Z,101116.80
2022-07-30T13:36:43.264Z,101121.80
2022-07-30T13:39:12.246Z,101114.20
2022-07-30T13:41:41.924Z,101112.20
2022-07-30T13:44:09.786Z,101101.20
2022-07-30T13:46:41.045Z,101098.80
2022-07-30T13:49:10.928Z,101104.40
2022-07-30T13:51:39.086Z,101101.00
2022-07-30T13:54:07.744Z,101101.00
2022-07-30T13:56:40.848Z,101098.60
2022-07-30T13:59:10.065Z,101103.20
2022-07-30T14:01:38.273Z,101091.80
2022-07-30T14:04:06.169Z,101094.00
2022-07-30T14:06:35.880Z,101092.40
2022-07-30T14:09:04.198Z,101087.80
2022-07-30T14:11:32.355Z,101086.00
2022-07-30T14:14:00.567Z,101100.20
2022-07-30T14:16:46.153Z,101094.60
2022-07-30T14:19:24.381Z,101093.40
2022-07-30T14:21:54.089Z,101092.60
2022-07-30T14:24:23.850Z,101094.00
2022-07-30T14:26:58.623Z,101091.40
2022-07-30T14:29:29.705Z,101089.80
2022-07-30T14:31:57.795Z,101095.80
2022-07-30T14:34:25.763Z,101100.80
2022-07-30T14:36:53.552Z,101096.80
2022-07-30T14:39:21.655Z,101092.60
2022-07-30T14:41:53.605Z,101098.00
2022-07-30T14:44:24.525Z,101089.60
2022-07-30T14:46:53.652Z,101096.00
2022-07-30T14:49:22.699Z,101087.40
2022-07-30T14:51:52.424Z,101099.40
2022-07-30T14:54:22.545Z,101088.60
2022-07-30T14:56:54.862Z,101080.20
2022-07-30T14:59:24.752Z,101077.20
2022-07-30T15:01:53.182Z,101072.80
2022-07-30T15:04:22.120Z,101070.60
2022-07-30T15:06:51.228Z,101070.80
2022-07-30T15:09:20.741Z,101075.60
2022-07-30T15:12:23.604Z,101070.40
2022-07-30T15:14:40.166Z,101068.60
2022-07-30T15:17:08.965Z,101076.20
2022-07-30T15:19:36.725Z,101076.80
2022-07-30T15:22:05.569Z,101077.20
2022-07-30T15:24:34.614Z,101074.00
2022-07-30T15:27:02.610Z,101072.60
2022-07-30T15:29:31.130Z,101068.00
2022-07-30T15:32:00.561Z,101067.00
2022-07-30T15:34:34.238Z,101066.20
2022-07-30T15:37:05.322Z,101070.60
2022-07-30T15:39:34.439Z,101069.20
2022-07-30T15:42:06.097Z,101069.80
2022-07-30T15:44:34.778Z,101066.80
2022-07-30T15:47:03.094Z,101070.40
2022-07-30T15:49:31.075Z,101068.20
2022-07-30T15:52:01.290Z,101068.00
2022-07-30T15:54:29.567Z,101068.20
2022-07-30T15:57:01.089Z,101062.40
2022-07-30T15:59:31.094Z,101069.20
2022-07-30T16:01:59.113Z,101071.00
2022-07-30T16:04:31.568Z,101068.40
2022-07-30T16:07:04.561Z,101074.80
2022-07-30T16:09:32.358Z,101064.60
2022-07-30T16:12:00.402Z,101062.20
2022-07-30T16:14:28.886Z,101066.60
2022-07-30T16:16:56.788Z,101060.00
2022-07-30T16:19:24.602Z,101059.60
2022-07-30T16:21:52.862Z,101058.60
2022-07-30T16:24:20.847Z,101052.60
2022-07-30T16:26:48.984Z,101056.40
2022-07-30T16:29:18.054Z,101048.40
2022-07-30T16:31:47.191Z,101049.00
2022-07-30T16:34:17.227Z,101051.60
2022-07-30T16:36:51.271Z,101051.20
2022-07-30T16:39:19.069Z,101048.60
2022-07-30T16:41:47.021Z,101042.40
2022-07-30T16:44:14.803Z,101046.80
2022-07-30T16:46:42.762Z,101041.00
2022-07-30T16:49:10.773Z,101048.60
2022-07-30T16:51:38.772Z,101042.40
2022-07-30T16:54:07.767Z,101048.60
2022-07-30T16:56:35.676Z,101049.60
2022-07-30T16:59:03.610Z,101048.80
2022-07-30T17:01:32.388Z,101047.40
2022-07-30T17:04:00.473Z,101042.20
2022-07-30T17:06:28.397Z,101043.20
2022-07-30T17:08:56.341Z,101036.80
2022-07-30T17:11:47.692Z,101046.00
2022-07-30T17:14:12.839Z,101038.00
2022-07-30T17:16:41.572Z,101037.40
2022-07-30T17:19:09.883Z,101034.60
2022-07-30T17:21:38.371Z,101032.80
2022-07-30T17:24:12.003Z,101033.00
2022-07-30T17:26:43.529Z,101033.00
2022-07-30T17:29:16.530Z,101034.60
2022-07-30T17:31:46.353Z,101027.80
2022-07-30T17:34:20.287Z,101029.80
2022-07-30T17:36:53.176Z,101028.80
2022-07-30T17:40:19.910Z,101027.80
2022-07-30T17:42:12.263Z,101032.40
2022-07-30T17:44:42.849Z,101032.60
2022-07-30T17:47:14.540Z,101029.80
2022-07-30T17:49:42.602Z,101027.60
2022-07-30T17:52:10.857Z,101031.00
2022-07-30T17:54:39.077Z,101024.40
2022-07-30T17:57:07.298Z,101024.40
2022-07-30T17:59:35.154Z,101025.40
2022-07-30T18:02:04.772Z,101025.40
2022-07-30T18:04:34.285Z,101022.60
2022-07-30T18:07:03.269Z,101025.40
2022-07-30T18:09:39.074Z,101023.40
2022-07-30T18:12:08.758Z,101025.00
2022-07-30T18:14:37.589Z,101030.40
2022-07-30T18:17:05.822Z,101028.60
2022-07-30T18:19:33.764Z,101027.00
2022-07-30T18:22:03.044Z,101035.80
2022-07-30T18:24:32.626Z,101038.60
2022-07-30T18:27:00.462Z,101044.00
2022-07-30T18:29:28.224Z,101041.20
2022-07-30T18:31:56.041Z,101041.00
2022-07-30T18:34:23.902Z,101041.60
2022-07-30T18:36:53.288Z,101034.80
2022-07-30T18:39:21.357Z,101038.60
2022-07-30T18:41:49.331Z,101039.40
2022-07-30T18:44:17.468Z,101041.60
2022-07-30T18:46:48.145Z,101041.80
2022-07-30T18:49:35.680Z,101042.60
2022-07-30T18:52:05.062Z,101045.40
2022-07-30T18:54:37.104Z,101046.40
2022-07-30T18:57:05.472Z,101045.00
2022-07-30T18:59:33.242Z,101048.20
2022-07-30T19:02:02.233Z,101049.00
2022-07-30T19:04:31.690Z,101047.40
2022-07-30T19:06:59.550Z,101049.00
2022-07-30T19:09:27.544Z,101054.40
2022-07-30T19:11:55.298Z,101051.00
2022-07-30T19:14:23.171Z,101052.60
2022-07-30T19:16:51.274Z,101061.20
2022-07-30T19:19:20.121Z,101058.80
2022-07-30T19:21:47.910Z,101060.00
2022-07-30T19:24:15.795Z,101055.80
2022-07-30T19:26:44.249Z,101051.80
2022-07-30T19:29:12.431Z,101056.20
2022-07-30T19:31:41.884Z,101057.40
2022-07-30T19:34:11.273Z,101055.00
2022-07-30T19:36:40.125Z,101063.00
2022-07-30T19:39:10.184Z,101059.20
2022-07-30T19:41:42.166Z,101064.20
2022-07-30T19:44:12.235Z,101063.40
2022-07-30T19:46:41.416Z,101057.40
2022-07-30T19:49:10.759Z,101065.00
2022-07-30T19:52:17.599Z,101065.40
2022-07-30T19:54:26.751Z,101068.00
2022-07-30T19:56:54.439Z,101068.40
2022-07-30T19:59:45.254Z,101067.20
2022-07-30T20:02:13.553Z,101063.00
2022-07-30T20:04:43.567Z,101072.40
2022-07-30T20:07:11.943Z,101076.60
2022-07-30T20:09:42.774Z,101078.80
2022-07-30T20:12:12.882Z,101072.00
2022-07-30T20:14:43.447Z,101063.60
2022-07-30T20:17:11.968Z,101066.60
2022-07-30T20:22:29.491Z,101064.80
2022-07-30T20:24:57.472Z,101065.40
2022-07-30T20:27:37.285Z,101063.60
2022-07-30T20:30:09.465Z,101058.40
2022-07-30T20:32:42.314Z,101062.40
2022-07-30T20:35:14.248Z,101065.40
2022-07-30T20:37:55.331Z,101062.40
2022-07-30T20:40:26.757Z,101059.40
2022-07-30T20:42:55.195Z,101056.80
2022-07-30T20:45:24.753Z,101058.40
2022-07-30T20:47:56.755Z,101060.80
2022-07-30T20:50:30.596Z,101059.60
2022-07-30T20:52:59.903Z,101060.20
2022-07-30T20:55:28.128Z,101056.60
2022-07-30T20:58:11.176Z,101056.40
2022-07-30T21:00:49.752Z,101056.40
2022-07-30T21:03:22.547Z,101057.20
2022-07-30T21:05:52.446Z,101056.40
2022-07-30T21:08:25.254Z,101058.40
2022-07-30T21:10:55.252Z,101058.20
2022-07-30T21:13:25.071Z,101054.80
2022-07-30T21:16:02.842Z,101055.20
2022-07-30T21:18:32.821Z,101051.20
2022-07-30T21:21:04.905Z,101047.60
2022-07-30T21:23:33.527Z,101053.20
2022-07-30T21:26:05.904Z,101053.60
2022-07-30T21:28:37.959Z,101046.40
2022-07-30T21:31:06.962Z,101047.00
2022-07-30T21:33:37.028Z,101049.00
2022-07-30T21:36:10.868Z,101045.80
2022-07-30T21:38:42.831Z,101045.00
2022-07-30T21:41:14.361Z,101038.40
2022-07-30T21:43:44.480Z,101040.20
2022-07-30T21:46:14.540Z,101041.40
2022-07-30T21:48:45.927Z,101042.20
2022-07-30T21:51:14.515Z,101046.20
2022-07-30T21:53:46.326Z,101041.60
2022-07-30T21:56:15.984Z,101043.00
2022-07-30T21:58:44.664Z,101037.60
2022-07-30T22:01:16.850Z,101041.40
2022-07-30T22:04:01.699Z,101038.60
2022-07-30T22:06:39.965Z,101036.40
2022-07-30T22:09:19.565Z,101037.00
2022-07-30T22:12:06.707Z,101035.60
2022-07-30T22:14:41.146Z,101034.80
2022-07-30T22:17:23.623Z,101030.80
2022-07-30T22:20:03.224Z,101022.20
2022-07-30T22:22:36.341Z,101026.80
2022-07-30T22:25:09.558Z,101030.40
2022-07-30T22:27:56.538Z,101028.40
2022-07-30T22:30:28.262Z,101027.40
2022-07-30T22:33:08.837Z,101022.00
2022-07-30T22:35:37.728Z,101021.60
2022-07-30T22:38:07.328Z,101018.40
2022-07-30T22:40:36.928Z,101016.00
2022-07-30T22:43:10.687Z,101012.80
2022-07-30T22:45:48.813Z,101005.80
2022-07-30T22:48:29.530Z,101004.00
2022-07-30T22:50:58.803Z,101002.20
2022-07-30T22:54:03.345Z,100999.40
2022-07-30T22:56:15.779Z,100994.20
2022-07-30T22:58:44.642Z,100994.80
2022-07-30T23:01:12.390Z,100989.40
2022-07-30T23:03:42.026Z,100985.00
2022-07-30T23:06:14.853Z,100981.60
2022-07-30T23:08:44.430Z,100982.60
2022-07-30T23:11:12.261Z,100977.80
2022-07-30T23:12:17.497Z,101063.80
2022-07-30T23:13:40.726Z,100980.80
2022-07-30T23:16:08.602Z,100982.40
2022-07-30T23:18:36.552Z,100984.20
2022-07-30T23:21:04.982Z,100983.60
2022-07-30T23:23:34.061Z,100981.40
2022-07-30T23:26:05.213Z,100976.00
2022-07-30T23:28:32.898Z,100974.00
2022-07-30T23:31:01.400Z,100970.00
2022-07-30T23:33:30.757Z,100968.60
2022-07-30T23:36:00.481Z,100969.80
2022-07-30T23:38:29.091Z,100964.20
2022-07-30T23:41:01.467Z,100963.40
2022-07-30T23:43:31.041Z,100964.80
2022-07-30T23:45:59.467Z,100966.40
2022-07-30T23:48:28.397Z,100968.00
2022-07-30T23:50:56.174Z,100965.00
2022-07-30T23:53:25.359Z,100963.80
2022-07-30T23:55:53.123Z,100963.20
2022-07-30T23:58:21.044Z,100957.40
